createdAt,value
2022-10-17T00:00:56.520Z,0.00
2022-10-17T00:01:56.495Z,0.00
2022-10-17T00:02:56.724Z,0.00
2022-10-17T00:04:03.869Z,0.00
2022-10-17T00:04:56.508Z,0.00
2022-10-17T00:05:57.900Z,0.00
2022-10-17T00:06:56.457Z,0.00
2022-10-17T00:08:03.970Z,0.00
2022-10-17T00:08:56.660Z,0.00
2022-10-17T00:09:56.436Z,0.00
2022-10-17T00:10:56.656Z,0.00
2022-10-17T00:11:57.414Z,0.00
2022-10-17T00:12:59.658Z,0.00
2022-10-17T00:14:03.637Z,0.00
2022-10-17T00:14:57.647Z,0.00
2022-10-17T00:15:56.366Z,0.00
2022-10-17T00:16:56.377Z,0.00
2022-10-17T00:17:59.369Z,0.00
2022-10-17T00:18:57.389Z,0.00
2022-10-17T00:19:59.370Z,0.00
2022-10-17T00:21:18.316Z,0.00
2022-10-17T00:21:56.339Z,0.00
2022-10-17T00:22:56.500Z,0.00
2022-10-17T00:23:56.531Z,0.00
2022-10-17T00:24:57.509Z,0.00
2022-10-17T00:25:56.289Z,0.00
2022-10-17T00:26:56.516Z,0.00
2022-10-17T00:27:56.465Z,0.00
2022-10-17T00:28:57.341Z,0.00
2022-10-17T00:29:56.205Z,0.00
2022-10-17T00:30:56.440Z,0.00
2022-10-17T00:31:56.469Z,0.00
2022-10-17T00:32:59.467Z,0.00
2022-10-17T00:33:59.210Z,0.00
2022-10-17T00:34:56.379Z,0.00
2022-10-17T00:35:56.392Z,0.00
2022-10-17T00:36:56.149Z,0.00
2022-10-17T00:37:56.141Z,0.00
2022-10-17T00:38:56.121Z,0.00
2022-10-17T00:39:56.331Z,0.00
2022-10-17T00:41:56.134Z,0.00
2022-10-17T00:42:59.098Z,0.00
2022-10-17T00:43:57.093Z,0.00
2022-10-17T00:44:59.345Z,0.00
2022-10-17T00:45:56.073Z,0.00
2022-10-17T00:46:57.064Z,0.00
2022-10-17T00:47:56.295Z,0.00
2022-10-17T00:48:56.041Z,0.00
2022-10-17T00:49:57.050Z,0.00
2022-10-17T00:50:56.009Z,0.00
2022-10-17T00:51:56.003Z,0.00
2022-10-17T00:52:56.992Z,0.00
2022-10-17T00:53:55.993Z,0.00
2022-10-17T00:54:57.173Z,0.00
2022-10-17T00:55:58.990Z,0.00
2022-10-17T00:56:56.208Z,0.00
2022-10-17T00:57:56.197Z,0.00
2022-10-17T00:58:56.165Z,0.00
2022-10-17T00:59:55.911Z,0.00
2022-10-17T01:00:55.904Z,0.00
2022-10-17T01:01:56.166Z,0.00
2022-10-17T01:02:58.898Z,0.00
2022-10-17T01:03:55.881Z,0.00
2022-10-17T01:04:55.890Z,0.00
2022-10-17T01:05:55.846Z,0.00
2022-10-17T01:06:58.867Z,0.00
2022-10-17T01:07:56.062Z,0.00
2022-10-17T01:08:56.825Z,0.00
2022-10-17T01:09:56.072Z,0.00
2022-10-17T01:11:17.029Z,0.00
2022-10-17T01:12:02.882Z,0.00
2022-10-17T01:12:56.794Z,0.00
2022-10-17T01:13:55.932Z,0.00
2022-10-17T01:15:11.298Z,0.00
2022-10-17T01:15:58.742Z,0.00
2022-10-17T01:16:55.758Z,0.00
2022-10-17T01:17:56.751Z,0.00
2022-10-17T01:18:55.760Z,0.00
2022-10-17T01:19:56.729Z,0.00
2022-10-17T01:20:55.928Z,0.00
2022-10-17T01:22:16.968Z,0.00
2022-10-17T01:22:55.888Z,0.00
2022-10-17T01:23:55.922Z,0.00
2022-10-17T01:24:55.687Z,0.00
2022-10-17T01:25:55.649Z,0.00
2022-10-17T01:27:11.145Z,0.00
2022-10-17T01:27:55.859Z,0.00
2022-10-17T01:28:55.598Z,0.00
2022-10-17T01:29:55.856Z,0.00
2022-10-17T01:30:55.612Z,0.00
2022-10-17T01:31:55.582Z,0.00
2022-10-17T01:33:11.092Z,0.00
2022-10-17T01:33:55.568Z,0.00
2022-10-17T01:34:56.558Z,0.00
2022-10-17T01:35:57.368Z,0.00
2022-10-17T01:36:55.524Z,0.00
2022-10-17T01:37:56.546Z,0.00
2022-10-17T01:38:55.561Z,0.00
2022-10-17T01:39:55.725Z,0.00
2022-10-17T01:40:55.508Z,0.00
2022-10-17T01:41:55.721Z,0.00
2022-10-17T01:42:55.456Z,0.00
2022-10-17T01:43:55.461Z,0.00
2022-10-17T01:44:58.471Z,0.00
2022-10-17T01:45:55.711Z,0.00
2022-10-17T01:47:56.422Z,0.00
2022-10-17T01:49:02.864Z,0.00
2022-10-17T01:49:55.395Z,0.00
2022-10-17T01:50:55.400Z,0.00
2022-10-17T01:51:58.412Z,0.00
2022-10-17T01:52:55.610Z,0.00
2022-10-17T01:53:56.384Z,0.00
2022-10-17T01:54:55.585Z,0.00
2022-10-17T01:55:55.369Z,0.00
2022-10-17T01:56:55.334Z,0.00
2022-10-17T01:57:56.563Z,0.00
2022-10-17T01:58:56.576Z,0.00
2022-10-17T01:59:55.536Z,0.00
2022-10-17T02:00:55.567Z,0.00
2022-10-17T02:02:02.640Z,0.00
2022-10-17T02:02:55.270Z,0.00
2022-10-17T02:03:58.284Z,0.00
2022-10-17T02:04:55.297Z,0.00
2022-10-17T02:05:58.266Z,0.00
2022-10-17T02:06:55.494Z,0.00
2022-10-17T02:07:56.250Z,0.00
2022-10-17T02:08:55.185Z,0.00
2022-10-17T02:10:10.598Z,0.00
2022-10-17T02:10:55.457Z,0.00
2022-10-17T02:11:55.185Z,0.00
2022-10-17T02:12:55.390Z,0.00
2022-10-17T02:13:55.157Z,0.00
2022-10-17T02:14:55.133Z,0.00
2022-10-17T02:15:55.405Z,0.00
2022-10-17T02:16:55.345Z,0.00
2022-10-17T02:17:55.125Z,0.00
2022-10-17T02:18:56.119Z,0.00
2022-10-17T02:19:55.309Z,0.00
2022-10-17T02:21:10.786Z,0.00
2022-10-17T02:21:55.311Z,0.00
2022-10-17T02:23:16.208Z,0.00
2022-10-17T02:24:02.314Z,0.00
2022-10-17T02:24:56.072Z,0.00
2022-10-17T02:26:10.333Z,0.00
2022-10-17T02:26:55.258Z,0.00
2022-10-17T02:27:55.015Z,0.00
2022-10-17T02:28:58.313Z,0.00
2022-10-17T02:30:02.479Z,0.00
2022-10-17T02:30:56.010Z,0.00
2022-10-17T02:31:55.176Z,0.00
2022-10-17T02:32:55.223Z,0.00
2022-10-17T02:33:56.172Z,0.00
2022-10-17T02:34:55.207Z,0.00
2022-10-17T02:35:55.165Z,0.00
2022-10-17T02:36:54.929Z,0.00
2022-10-17T02:37:58.157Z,0.00
2022-10-17T02:38:56.133Z,0.00
2022-10-17T02:39:54.898Z,0.00
2022-10-17T02:40:55.115Z,0.00
2022-10-17T02:41:55.075Z,0.00
2022-10-17T02:42:55.080Z,0.00
2022-10-17T02:43:57.627Z,0.00
2022-10-17T02:44:55.844Z,0.00
2022-10-17T02:45:55.082Z,0.00
2022-10-17T02:47:02.124Z,0.00
2022-10-17T02:47:56.073Z,0.00
2022-10-17T02:48:55.033Z,0.00
2022-10-17T02:50:15.824Z,0.00
2022-10-17T02:50:56.023Z,0.00
2022-10-17T02:52:02.215Z,0.00
2022-10-17T02:52:57.772Z,0.00
2022-10-17T02:53:54.990Z,0.00
2022-10-17T02:54:54.984Z,0.00
2022-10-17T02:55:54.952Z,0.00
2022-10-17T02:56:54.714Z,0.00
2022-10-17T02:57:57.769Z,0.00
2022-10-17T02:58:54.699Z,0.00
2022-10-17T02:59:54.706Z,0.00
2022-10-17T03:00:55.993Z,0.00
2022-10-17T03:01:55.939Z,0.00
2022-10-17T03:03:10.059Z,0.00
2022-10-17T03:03:54.883Z,0.00
2022-10-17T03:05:01.928Z,0.00
2022-10-17T03:05:54.664Z,0.00
2022-10-17T03:07:01.745Z,0.00
2022-10-17T03:07:57.885Z,0.00
2022-10-17T03:08:55.599Z,0.00
2022-10-17T03:09:58.324Z,0.00
2022-10-17T03:10:54.576Z,0.00
2022-10-17T03:11:57.854Z,0.00
2022-10-17T03:12:55.804Z,0.00
2022-10-17T03:13:54.562Z,0.00
2022-10-17T03:14:54.751Z,0.00
2022-10-17T03:15:54.738Z,0.00
2022-10-17T03:17:02.020Z,0.00
2022-10-17T03:17:54.501Z,0.00
2022-10-17T03:18:54.723Z,0.00
2022-10-17T03:19:55.484Z,0.00
2022-10-17T03:20:54.457Z,0.00
2022-10-17T03:21:57.717Z,0.00
2022-10-17T03:22:54.495Z,0.00
2022-10-17T03:23:54.445Z,0.00
2022-10-17T03:24:55.435Z,0.00
2022-10-17T03:25:55.442Z,0.00
2022-10-17T03:26:54.617Z,0.00
2022-10-17T03:27:54.648Z,0.00
2022-10-17T03:28:54.694Z,0.00
2022-10-17T03:30:01.604Z,0.00
2022-10-17T03:30:54.347Z,0.00
2022-10-17T03:31:54.585Z,0.00
2022-10-17T03:32:54.328Z,0.00
2022-10-17T03:33:54.581Z,0.00
2022-10-17T03:34:54.360Z,0.00
2022-10-17T03:35:54.316Z,0.00
2022-10-17T03:36:57.322Z,0.00
2022-10-17T03:37:55.551Z,0.00
2022-10-17T03:39:01.461Z,0.00
2022-10-17T03:39:54.528Z,0.00
2022-10-17T03:40:54.269Z,0.00
2022-10-17T03:41:57.520Z,0.00
2022-10-17T03:42:54.240Z,0.00
2022-10-17T03:43:54.222Z,0.00
2022-10-17T03:44:57.483Z,0.00
2022-10-17T03:45:54.247Z,0.00
2022-10-17T03:47:01.485Z,0.00
2022-10-17T03:47:55.208Z,0.00
2022-10-17T03:48:54.180Z,0.00
2022-10-17T03:49:54.397Z,0.00
2022-10-17T03:50:54.400Z,0.00
2022-10-17T03:52:09.788Z,0.00
2022-10-17T03:52:55.172Z,0.00
2022-10-17T03:54:01.489Z,0.00
2022-10-17T03:54:57.379Z,0.00
2022-10-17T03:55:54.115Z,0.00
2022-10-17T03:56:54.191Z,0.00
2022-10-17T03:57:54.082Z,0.00
2022-10-17T03:58:54.089Z,0.00
2022-10-17T03:59:54.293Z,0.00
2022-10-17T04:00:54.338Z,0.00
2022-10-17T04:01:54.081Z,0.00
2022-10-17T04:02:54.259Z,0.00
2022-10-17T04:03:54.032Z,0.00
2022-10-17T04:05:09.703Z,0.00
2022-10-17T04:05:55.267Z,0.00
2022-10-17T04:06:55.243Z,0.00
2022-10-17T04:07:54.243Z,0.00
2022-10-17T04:08:53.956Z,0.00
2022-10-17T04:09:54.187Z,0.00
2022-10-17T04:10:54.181Z,0.00
2022-10-17T04:12:09.536Z,0.00
2022-10-17T04:12:54.185Z,0.00
2022-10-17T04:13:54.125Z,0.00
2022-10-17T04:14:53.899Z,0.00
2022-10-17T04:15:54.139Z,0.00
2022-10-17T04:16:53.937Z,0.00
2022-10-17T04:17:56.983Z,0.00
2022-10-17T04:18:53.869Z,0.00
2022-10-17T04:19:53.897Z,0.00
2022-10-17T04:20:53.848Z,0.00
2022-10-17T04:21:54.068Z,0.00
2022-10-17T04:22:54.062Z,0.00
2022-10-17T04:23:54.837Z,0.00
2022-10-17T04:24:56.819Z,0.00
2022-10-17T04:25:54.031Z,0.00
2022-10-17T04:26:54.008Z,0.00
2022-10-17T04:27:53.999Z,0.00
2022-10-17T04:28:54.776Z,0.00
2022-10-17T04:29:53.779Z,0.00
2022-10-17T04:30:54.173Z,0.00
2022-10-17T04:31:54.745Z,0.00
2022-10-17T04:32:54.734Z,0.00
2022-10-17T04:33:53.970Z,0.00
2022-10-17T04:34:54.731Z,0.00
2022-10-17T04:35:53.911Z,0.00
2022-10-17T04:36:53.700Z,0.00
2022-10-17T04:37:56.949Z,0.00
2022-10-17T04:38:53.915Z,0.00
2022-10-17T04:39:53.647Z,0.00
2022-10-17T04:40:53.658Z,0.00
2022-10-17T04:41:56.879Z,0.00
2022-10-17T04:42:53.623Z,0.00
2022-10-17T04:43:56.649Z,0.00
2022-10-17T04:44:53.627Z,0.00
2022-10-17T04:45:53.829Z,0.00
2022-10-17T04:46:56.873Z,0.00
2022-10-17T04:47:53.567Z,0.00
2022-10-17T04:48:53.803Z,0.00
2022-10-17T04:49:53.779Z,0.00
2022-10-17T04:50:53.780Z,0.00
2022-10-17T04:51:53.791Z,0.00
2022-10-17T04:53:14.774Z,0.00
2022-10-17T04:53:53.492Z,0.00
2022-10-17T04:54:53.501Z,0.00
2022-10-17T04:55:53.690Z,0.00
2022-10-17T04:56:53.485Z,0.00
2022-10-17T04:57:53.722Z,0.00
2022-10-17T04:58:56.456Z,0.00
2022-10-17T04:59:53.478Z,0.00
2022-10-17T05:00:53.473Z,20.00
2022-10-17T05:01:53.705Z,0.00
2022-10-17T05:02:53.662Z,0.00
2022-10-17T05:03:54.652Z,0.00
2022-10-17T05:04:54.422Z,0.00
2022-10-17T05:05:53.650Z,0.00
2022-10-17T05:06:54.613Z,0.00
2022-10-17T05:07:54.373Z,0.00
2022-10-17T05:08:53.586Z,20.00
2022-10-17T05:10:00.411Z,0.00
2022-10-17T05:10:53.389Z,0.00
2022-10-17T05:11:53.339Z,0.00
2022-10-17T05:12:53.291Z,0.00
2022-10-17T05:13:53.286Z,0.00
2022-10-17T05:14:53.512Z,0.00
2022-10-17T05:15:53.303Z,0.00
2022-10-17T05:16:53.496Z,0.00
2022-10-17T05:17:54.287Z,0.00
2022-10-17T05:18:54.522Z,0.00
2022-10-17T05:19:53.456Z,0.00
2022-10-17T05:20:53.473Z,0.00
2022-10-17T05:21:54.247Z,4.00
2022-10-17T05:22:56.258Z,4.00
2022-10-17T05:23:56.217Z,0.00
2022-10-17T05:24:53.450Z,0.00
2022-10-17T05:25:53.396Z,0.00
2022-10-17T05:26:53.410Z,4.00
2022-10-17T05:27:56.198Z,4.00
2022-10-17T05:28:54.457Z,4.00
2022-10-17T05:29:53.370Z,4.00
2022-10-17T05:30:53.107Z,4.00
2022-10-17T05:31:53.134Z,4.00
2022-10-17T05:32:56.143Z,8.00
2022-10-17T05:33:56.333Z,8.00
2022-10-17T05:34:53.321Z,8.00
2022-10-17T05:35:53.295Z,8.00
2022-10-17T05:36:53.077Z,28.00
2022-10-17T05:38:00.291Z,12.00
2022-10-17T05:38:53.277Z,16.00
2022-10-17T05:40:08.295Z,20.00
2022-10-17T05:40:54.029Z,20.00
2022-10-17T05:41:53.062Z,20.00
2022-10-17T05:42:53.017Z,24.00
2022-10-17T05:43:54.049Z,28.00
2022-10-17T05:44:52.971Z,32.00
2022-10-17T05:45:56.028Z,36.00
2022-10-17T05:46:53.197Z,40.00
2022-10-17T05:47:53.208Z,44.00
2022-10-17T05:48:52.941Z,48.00
2022-10-17T05:49:52.946Z,52.00
2022-10-17T05:50:55.943Z,56.00
2022-10-17T05:51:54.166Z,60.00
2022-10-17T05:52:52.895Z,68.00
2022-10-17T05:53:52.889Z,76.00
2022-10-17T05:54:52.884Z,84.00
2022-10-17T05:55:52.864Z,84.00
2022-10-17T05:56:54.124Z,92.00
2022-10-17T05:57:52.897Z,96.00
2022-10-17T05:58:57.375Z,100.00
2022-10-17T05:59:53.820Z,108.00
2022-10-17T06:01:00.154Z,112.00
2022-10-17T06:01:54.127Z,120.00
2022-10-17T06:02:53.038Z,128.00
2022-10-17T06:03:53.015Z,132.00
2022-10-17T06:04:52.812Z,136.00
2022-10-17T06:05:53.025Z,144.00
2022-10-17T06:06:52.744Z,148.00
2022-10-17T06:07:52.764Z,152.00
2022-10-17T06:08:53.785Z,152.00
2022-10-17T06:09:52.942Z,160.00
2022-10-17T06:10:52.703Z,168.00
2022-10-17T06:11:53.701Z,172.00
2022-10-17T06:12:59.982Z,180.00
2022-10-17T06:13:52.936Z,188.00
2022-10-17T06:14:52.672Z,204.00
2022-10-17T06:15:52.884Z,216.00
2022-10-17T06:16:52.643Z,224.00
2022-10-17T06:17:53.900Z,236.00
2022-10-17T06:18:52.900Z,244.00
2022-10-17T06:19:53.873Z,260.00
2022-10-17T06:20:52.830Z,288.00
2022-10-17T06:21:52.612Z,304.00
2022-10-17T06:22:52.607Z,316.00
2022-10-17T06:23:52.612Z,324.00
2022-10-17T06:24:52.578Z,328.00
2022-10-17T06:25:53.225Z,332.00
2022-10-17T06:26:52.797Z,344.00
2022-10-17T06:28:52.871Z,360.00
2022-10-17T06:29:52.559Z,368.00
2022-10-17T06:30:52.771Z,376.00
2022-10-17T06:31:52.506Z,384.00
2022-10-17T06:32:53.731Z,392.00
2022-10-17T06:33:52.487Z,404.00
2022-10-17T06:34:52.506Z,420.00
2022-10-17T06:35:53.510Z,436.00
2022-10-17T06:36:52.466Z,444.00
2022-10-17T06:37:53.483Z,464.00
2022-10-17T06:38:52.427Z,492.00
2022-10-17T06:39:52.481Z,488.00
2022-10-17T06:40:52.413Z,492.00
2022-10-17T06:41:52.395Z,504.00
2022-10-17T06:42:55.409Z,492.00
2022-10-17T06:43:55.410Z,480.00
2022-10-17T06:44:52.615Z,476.00
2022-10-17T06:45:52.399Z,476.00
2022-10-17T06:46:52.351Z,484.00
2022-10-17T06:47:52.357Z,488.00
2022-10-17T06:48:52.321Z,496.00
2022-10-17T06:49:52.330Z,504.00
2022-10-17T06:50:52.344Z,504.00
2022-10-17T06:51:52.313Z,500.00
2022-10-17T06:52:53.364Z,500.00
2022-10-17T06:53:52.282Z,504.00
2022-10-17T06:54:52.301Z,508.00
2022-10-17T06:55:52.312Z,516.00
2022-10-17T06:56:52.254Z,520.00
2022-10-17T06:57:52.252Z,532.00
2022-10-17T06:58:52.215Z,536.00
2022-10-17T06:59:52.245Z,532.00
2022-10-17T07:00:52.328Z,532.00
2022-10-17T07:01:52.192Z,532.00
2022-10-17T07:02:52.190Z,540.00
2022-10-17T07:03:52.182Z,544.00
2022-10-17T07:04:52.167Z,552.00
2022-10-17T07:05:52.159Z,556.00
2022-10-17T07:06:52.160Z,552.00
2022-10-17T07:07:53.410Z,540.00
2022-10-17T07:08:53.177Z,540.00
2022-10-17T07:09:52.134Z,536.00
2022-10-17T07:10:52.159Z,528.00
2022-10-17T07:11:53.362Z,556.00
2022-10-17T07:12:52.079Z,580.00
2022-10-17T07:13:55.105Z,596.00
2022-10-17T07:14:52.053Z,596.00
2022-10-17T07:15:52.121Z,604.00
2022-10-17T07:16:52.322Z,616.00
2022-10-17T07:17:53.104Z,624.00
2022-10-17T07:18:59.537Z,604.00
2022-10-17T07:19:53.038Z,560.00
2022-10-17T07:20:51.991Z,544.00
2022-10-17T07:21:52.025Z,560.00
2022-10-17T07:22:52.223Z,576.00
2022-10-17T07:24:13.990Z,596.00
2022-10-17T07:24:52.026Z,600.00
2022-10-17T07:25:52.194Z,616.00
2022-10-17T07:26:51.980Z,636.00
2022-10-17T07:27:52.201Z,660.00
2022-10-17T07:28:51.987Z,680.00
2022-10-17T07:29:51.905Z,696.00
2022-10-17T07:30:54.923Z,708.00
2022-10-17T07:31:52.164Z,708.00
2022-10-17T07:32:52.108Z,692.00
2022-10-17T07:33:52.926Z,668.00
2022-10-17T07:34:51.887Z,652.00
2022-10-17T07:35:52.095Z,664.00
2022-10-17T07:36:51.845Z,728.00
2022-10-17T07:37:51.852Z,796.00
2022-10-17T07:38:51.839Z,808.00
2022-10-17T07:39:51.806Z,768.00
2022-10-17T07:40:51.801Z,728.00
2022-10-17T07:42:12.811Z,712.00
2022-10-17T07:42:51.997Z,712.00
2022-10-17T07:43:58.957Z,724.00
2022-10-17T07:44:52.050Z,716.00
2022-10-17T07:45:53.020Z,712.00
2022-10-17T07:46:54.802Z,708.00
2022-10-17T07:47:51.736Z,700.00
2022-10-17T07:48:51.721Z,728.00
2022-10-17T07:49:51.740Z,752.00
2022-10-17T07:50:51.728Z,772.00
2022-10-17T07:51:51.712Z,792.00
2022-10-17T07:52:51.925Z,792.00
2022-10-17T07:53:54.703Z,792.00
2022-10-17T07:54:51.649Z,784.00
2022-10-17T07:55:54.902Z,744.00
2022-10-17T07:56:51.859Z,732.00
2022-10-17T07:57:51.647Z,736.00
2022-10-17T07:58:51.677Z,756.00
2022-10-17T07:59:51.613Z,748.00
2022-10-17T08:00:51.883Z,720.00
2022-10-17T08:01:51.846Z,684.00
2022-10-17T08:02:51.566Z,700.00
2022-10-17T08:03:51.842Z,736.00
2022-10-17T08:04:51.779Z,752.00
2022-10-17T08:05:52.559Z,756.00
2022-10-17T08:07:05.420Z,772.00
2022-10-17T08:07:55.568Z,788.00
2022-10-17T08:08:52.006Z,768.00
2022-10-17T08:09:51.539Z,820.00
2022-10-17T08:10:52.522Z,836.00
2022-10-17T08:11:51.732Z,872.00
2022-10-17T08:12:54.786Z,892.00
2022-10-17T08:13:51.469Z,924.00
2022-10-17T08:14:51.508Z,960.00
2022-10-17T08:15:52.474Z,1000.00
2022-10-17T08:16:58.612Z,1028.00
2022-10-17T08:17:51.430Z,1040.00
2022-10-17T08:18:51.409Z,1080.00
2022-10-17T08:19:51.421Z,1124.00
2022-10-17T08:20:55.603Z,1168.00
2022-10-17T08:21:52.610Z,1192.00
2022-10-17T08:22:54.673Z,1216.00
2022-10-17T08:23:51.362Z,1236.00
2022-10-17T08:24:51.385Z,1260.00
2022-10-17T08:25:51.364Z,1280.00
2022-10-17T08:26:52.625Z,1304.00
2022-10-17T08:27:52.328Z,1320.00
2022-10-17T08:28:51.609Z,1332.00
2022-10-17T08:29:52.300Z,1340.00
2022-10-17T08:30:51.315Z,1336.00
2022-10-17T08:31:58.613Z,1344.00
2022-10-17T08:32:52.513Z,1332.00
2022-10-17T08:33:58.735Z,1320.00
2022-10-17T08:34:58.435Z,1312.00
2022-10-17T08:35:51.263Z,1340.00
2022-10-17T08:36:58.511Z,1432.00
2022-10-17T08:37:51.232Z,1556.00
2022-10-17T08:38:53.027Z,1688.00
2022-10-17T08:39:51.185Z,1792.00
2022-10-17T08:40:51.447Z,1872.00
2022-10-17T08:42:06.434Z,1944.00
2022-10-17T08:42:51.425Z,2008.00
2022-10-17T08:43:52.412Z,2032.00
2022-10-17T08:44:51.388Z,2052.00
2022-10-17T08:45:51.122Z,2096.00
2022-10-17T08:46:51.428Z,2160.00
2022-10-17T08:47:51.114Z,2240.00
2022-10-17T08:48:51.099Z,2352.00
2022-10-17T08:49:54.356Z,2456.00
2022-10-17T08:50:51.081Z,2548.00
2022-10-17T08:51:51.357Z,2616.00
2022-10-17T08:52:51.066Z,2652.00
2022-10-17T08:53:51.043Z,2672.00
2022-10-17T08:54:51.055Z,2696.00
2022-10-17T08:55:51.389Z,2688.00
2022-10-17T08:56:51.035Z,2640.00
2022-10-17T08:57:51.238Z,2552.00
2022-10-17T08:58:51.016Z,2448.00
2022-10-17T08:59:51.266Z,2368.00
2022-10-17T09:00:52.245Z,2348.00
2022-10-17T09:01:50.978Z,2344.00
2022-10-17T09:02:51.265Z,2320.00
2022-10-17T09:03:50.989Z,2272.00
2022-10-17T09:04:50.930Z,2272.00
2022-10-17T09:05:57.991Z,2320.00
2022-10-17T09:06:51.163Z,2372.00
2022-10-17T09:07:52.187Z,2428.00
2022-10-17T09:08:51.145Z,2424.00
2022-10-17T09:09:50.874Z,2408.00
2022-10-17T09:10:51.094Z,2368.00
2022-10-17T09:11:50.914Z,2364.00
2022-10-17T09:12:50.848Z,2384.00
2022-10-17T09:13:50.849Z,2404.00
2022-10-17T09:14:51.854Z,2392.00
2022-10-17T09:15:51.089Z,2380.00
2022-10-17T09:16:50.838Z,2388.00
2022-10-17T09:17:51.820Z,2372.00
2022-10-17T09:18:53.819Z,2372.00
2022-10-17T09:19:50.800Z,2368.00
2022-10-17T09:20:51.003Z,2320.00
2022-10-17T09:21:50.778Z,2256.00
2022-10-17T09:22:52.043Z,2184.00
2022-10-17T09:24:08.961Z,2104.00
2022-10-17T09:24:51.741Z,2056.00
2022-10-17T09:25:50.958Z,1992.00
2022-10-17T09:26:50.742Z,1952.00
2022-10-17T09:27:51.707Z,1892.00
2022-10-17T09:28:50.738Z,1816.00
2022-10-17T09:29:53.731Z,1776.00
2022-10-17T09:30:50.685Z,1760.00
2022-10-17T09:31:50.990Z,1756.00
2022-10-17T09:32:51.925Z,1780.00
2022-10-17T09:33:54.832Z,1836.00
2022-10-17T09:34:58.003Z,1880.00
2022-10-17T09:35:57.659Z,1916.00
2022-10-17T09:36:50.840Z,2024.00
2022-10-17T09:37:53.629Z,2084.00
2022-10-17T09:38:51.628Z,2144.00
2022-10-17T09:39:50.585Z,2184.00
2022-10-17T09:40:56.195Z,2160.00
2022-10-17T09:41:51.797Z,2112.00
2022-10-17T09:42:50.574Z,2088.00
2022-10-17T09:43:50.523Z,2096.00
2022-10-17T09:44:50.529Z,2104.00
2022-10-17T09:45:51.522Z,2140.00
2022-10-17T09:46:53.801Z,2180.00
2022-10-17T09:48:53.772Z,2316.00
2022-10-17T09:49:50.508Z,2348.00
2022-10-17T09:51:14.688Z,2340.00
2022-10-17T09:51:54.468Z,2324.00
2022-10-17T09:52:50.702Z,2368.00
2022-10-17T09:53:50.432Z,2424.00
2022-10-17T09:54:50.448Z,2460.00
2022-10-17T09:55:57.535Z,2488.00
2022-10-17T09:56:50.431Z,2512.00
2022-10-17T09:57:50.369Z,2480.00
2022-10-17T09:58:53.415Z,2412.00
2022-10-17T09:59:50.379Z,2268.00
2022-10-17T10:00:51.690Z,2136.00
2022-10-17T10:01:50.592Z,2064.00
2022-10-17T10:02:53.614Z,2036.00
2022-10-17T10:03:50.577Z,1976.00
2022-10-17T10:05:03.741Z,1888.00
2022-10-17T10:05:51.540Z,1788.00
2022-10-17T10:06:53.316Z,1716.00
2022-10-17T10:07:50.273Z,1664.00
2022-10-17T10:08:50.513Z,1652.00
2022-10-17T10:09:50.256Z,1644.00
2022-10-17T10:10:51.529Z,1596.00
2022-10-17T10:11:53.305Z,1576.00
2022-10-17T10:12:50.241Z,1596.00
2022-10-17T10:13:50.542Z,1552.00
2022-10-17T10:14:54.707Z,1516.00
2022-10-17T10:15:50.216Z,1544.00
2022-10-17T10:16:53.235Z,1576.00
2022-10-17T10:17:50.164Z,1560.00
2022-10-17T10:18:51.219Z,1512.00
2022-10-17T10:19:50.404Z,1440.00
2022-10-17T10:20:51.209Z,1400.00
2022-10-17T10:21:57.352Z,1420.00
2022-10-17T10:22:51.165Z,1468.00
2022-10-17T10:23:50.357Z,1520.00
2022-10-17T10:24:50.344Z,1540.00
2022-10-17T10:25:50.356Z,1524.00
2022-10-17T10:26:50.106Z,1536.00
2022-10-17T10:27:53.363Z,1608.00
2022-10-17T10:28:53.163Z,1660.00
2022-10-17T10:29:50.275Z,1644.00
2022-10-17T10:30:51.071Z,1608.00
2022-10-17T10:31:53.087Z,1528.00
2022-10-17T10:32:50.078Z,1456.00
2022-10-17T10:33:54.569Z,1408.00
2022-10-17T10:34:54.259Z,1432.00
2022-10-17T10:36:05.460Z,1492.00
2022-10-17T10:37:05.379Z,1532.00
2022-10-17T10:37:50.023Z,1532.00
2022-10-17T10:38:49.981Z,1536.00
2022-10-17T10:39:49.984Z,1552.00
2022-10-17T10:40:49.960Z,1480.00
2022-10-17T10:41:49.969Z,1384.00
2022-10-17T10:42:49.919Z,1324.00
2022-10-17T10:43:50.185Z,1300.00
2022-10-17T10:44:50.198Z,1276.00
2022-10-17T10:45:51.134Z,1256.00
2022-10-17T10:46:50.890Z,1252.00
2022-10-17T10:47:53.150Z,1244.00
2022-10-17T10:48:50.111Z,1256.00
2022-10-17T10:49:49.877Z,1296.00
2022-10-17T10:50:51.075Z,1312.00
2022-10-17T10:51:51.106Z,1344.00
2022-10-17T10:52:49.825Z,1324.00
2022-10-17T10:53:49.804Z,1284.00
2022-10-17T10:54:50.053Z,1256.00
2022-10-17T10:55:56.903Z,1228.00
2022-10-17T10:56:53.298Z,1160.00
2022-10-17T10:57:49.783Z,1108.00
2022-10-17T10:58:51.023Z,1080.00
2022-10-17T10:59:53.031Z,1084.00
2022-10-17T11:00:49.842Z,1044.00
2022-10-17T11:01:49.728Z,992.00
2022-10-17T11:02:57.220Z,964.00
2022-10-17T11:03:49.922Z,980.00
2022-10-17T11:04:49.716Z,988.00
2022-10-17T11:05:49.714Z,988.00
2022-10-17T11:06:50.946Z,984.00
2022-10-17T11:07:49.654Z,1004.00
2022-10-17T11:09:05.125Z,1056.00
2022-10-17T11:09:49.874Z,1072.00
2022-10-17T11:10:49.945Z,1072.00
2022-10-17T11:11:49.865Z,1068.00
2022-10-17T11:13:04.997Z,1060.00
2022-10-17T11:13:51.870Z,1056.00
2022-10-17T11:14:52.841Z,1052.00
2022-10-17T11:15:49.583Z,1036.00
2022-10-17T11:16:49.802Z,1028.00
2022-10-17T11:17:49.594Z,1012.00
2022-10-17T11:18:49.811Z,1008.00
2022-10-17T11:19:50.793Z,1000.00
2022-10-17T11:20:49.816Z,988.00
2022-10-17T11:21:49.514Z,984.00
2022-10-17T11:22:49.500Z,976.00
2022-10-17T11:23:52.545Z,956.00
2022-10-17T11:24:49.495Z,944.00
2022-10-17T11:25:49.764Z,932.00
2022-10-17T11:26:49.486Z,944.00
2022-10-17T11:27:49.455Z,960.00
2022-10-17T11:28:49.534Z,968.00
2022-10-17T11:29:49.431Z,968.00
2022-10-17T11:30:49.449Z,968.00
2022-10-17T11:31:49.428Z,972.00
2022-10-17T11:32:56.949Z,980.00
2022-10-17T11:33:49.627Z,976.00
2022-10-17T11:34:49.397Z,964.00
2022-10-17T11:35:49.595Z,972.00
2022-10-17T11:36:49.666Z,984.00
2022-10-17T11:37:49.347Z,980.00
2022-10-17T11:38:49.339Z,980.00
2022-10-17T11:39:50.379Z,968.00
2022-10-17T11:40:50.566Z,952.00
2022-10-17T11:41:49.558Z,976.00
2022-10-17T11:43:11.596Z,976.00
2022-10-17T11:43:49.301Z,996.00
2022-10-17T11:44:50.297Z,1000.00
2022-10-17T11:45:49.514Z,976.00
2022-10-17T11:46:49.291Z,964.00
2022-10-17T11:47:49.516Z,952.00
2022-10-17T11:48:49.268Z,956.00
2022-10-17T11:49:51.154Z,964.00
2022-10-17T11:52:05.681Z,1000.00
2022-10-17T11:52:57.421Z,1012.00
2022-10-17T11:53:51.202Z,968.00
2022-10-17T11:54:49.200Z,992.00
2022-10-17T11:55:49.188Z,988.00
2022-10-17T11:56:49.180Z,972.00
2022-10-17T11:57:49.170Z,968.00
2022-10-17T11:58:49.375Z,960.00
2022-10-17T12:00:10.351Z,952.00
2022-10-17T12:00:49.805Z,964.00
2022-10-17T12:01:49.343Z,972.00
2022-10-17T12:02:49.355Z,976.00
2022-10-17T12:03:50.349Z,976.00
2022-10-17T12:04:49.753Z,984.00
2022-10-17T12:05:49.067Z,996.00
2022-10-17T12:06:49.109Z,984.00
2022-10-17T12:07:49.115Z,992.00
2022-10-17T12:08:49.038Z,1008.00
2022-10-17T12:09:49.043Z,1000.00
2022-10-17T12:10:49.021Z,968.00
2022-10-17T12:11:49.018Z,964.00
2022-10-17T12:12:49.022Z,996.00
2022-10-17T12:13:49.000Z,1000.00
2022-10-17T12:14:48.976Z,992.00
2022-10-17T12:15:50.212Z,996.00
2022-10-17T12:16:48.955Z,996.00
2022-10-17T12:17:48.987Z,1004.00
2022-10-17T12:18:49.944Z,1012.00
2022-10-17T12:19:48.916Z,1016.00
2022-10-17T12:20:48.947Z,1016.00
2022-10-17T12:21:49.153Z,1024.00
2022-10-17T12:22:49.148Z,1048.00
2022-10-17T12:23:56.394Z,1048.00
2022-10-17T12:24:49.108Z,1060.00
2022-10-17T12:25:49.128Z,1088.00
2022-10-17T12:26:48.842Z,1080.00
2022-10-17T12:27:49.855Z,1124.00
2022-10-17T12:28:48.886Z,1236.00
2022-10-17T12:29:49.040Z,1844.00
2022-10-17T12:30:56.194Z,2320.00
2022-10-17T12:31:48.803Z,2668.00
2022-10-17T12:33:04.311Z,3884.00
2022-10-17T12:33:49.801Z,4604.00
2022-10-17T12:34:51.819Z,4444.00
2022-10-17T12:35:48.758Z,4376.00
2022-10-17T12:37:14.497Z,2800.00
2022-10-17T12:38:18.603Z,1548.00
2022-10-17T12:39:13.945Z,1584.00
2022-10-17T12:40:14.457Z,1704.00
2022-10-17T12:41:18.570Z,1908.00
2022-10-17T12:42:11.417Z,1816.00
2022-10-17T12:43:11.417Z,1440.00
2022-10-17T12:44:11.444Z,1436.00
2022-10-17T12:45:11.385Z,1496.00
2022-10-17T12:46:11.394Z,1620.00
2022-10-17T12:47:11.604Z,1736.00
2022-10-17T12:48:11.579Z,1800.00
2022-10-17T12:49:11.368Z,2196.00